createdAt,value
2023-04-15T00:00:58.639Z,10.10
2023-04-15T00:03:25.592Z,10.06
2023-04-15T00:05:52.393Z,10.02
2023-04-15T00:08:19.118Z,9.81
2023-04-15T00:10:45.730Z,9.97
2023-04-15T00:13:12.730Z,9.89
2023-04-15T00:15:39.296Z,9.90
2023-04-15T00:18:07.413Z,9.91
2023-04-15T00:20:34.157Z,9.86
2023-04-15T00:23:01.943Z,9.69
2023-04-15T00:25:28.528Z,9.83
2023-04-15T00:27:55.097Z,9.65
2023-04-15T00:30:22.066Z,9.65
2023-04-15T00:32:48.865Z,9.52
2023-04-15T00:35:16.967Z,9.63
2023-04-15T00:37:45.570Z,9.63
2023-04-15T00:40:13.591Z,9.67
2023-04-15T00:42:40.173Z,9.63
2023-04-15T00:45:08.101Z,9.63
2023-04-15T00:47:36.305Z,9.48
2023-04-15T00:50:03.034Z,9.61
2023-04-15T00:52:31.016Z,9.61
2023-04-15T00:54:57.501Z,9.47
2023-04-15T00:57:24.153Z,9.54
2023-04-15T00:59:52.219Z,9.44
2023-04-15T01:02:18.979Z,9.48
2023-04-15T01:04:45.664Z,9.58
2023-04-15T01:07:12.217Z,9.55
2023-04-15T01:09:43.321Z,9.51
2023-04-15T01:12:12.024Z,9.55
2023-04-15T01:14:38.694Z,9.62
2023-04-15T01:17:05.469Z,9.59
2023-04-15T01:19:32.288Z,9.57
2023-04-15T01:21:59.247Z,9.56
2023-04-15T01:24:27.705Z,9.62
2023-04-15T01:26:55.739Z,9.50
2023-04-15T01:29:22.427Z,9.53
2023-04-15T01:31:52.813Z,9.50
2023-04-15T01:34:19.640Z,9.55
2023-04-15T01:36:46.710Z,9.58
2023-04-15T01:39:13.299Z,9.51
2023-04-15T01:41:40.035Z,9.47
2023-04-15T01:44:08.491Z,9.47
2023-04-15T01:46:35.840Z,9.39
2023-04-15T01:49:02.595Z,9.37
2023-04-15T01:51:29.339Z,9.35
2023-04-15T01:53:55.926Z,9.32
2023-04-15T01:56:22.975Z,9.39
2023-04-15T01:58:49.545Z,9.40
2023-04-15T02:01:17.635Z,9.38
2023-04-15T02:03:44.348Z,9.38
2023-04-15T02:06:11.060Z,9.40
2023-04-15T02:08:37.704Z,9.30
2023-04-15T02:11:04.384Z,9.46
2023-04-15T02:13:30.962Z,9.49
2023-04-15T02:15:57.704Z,9.45
2023-04-15T02:18:25.674Z,9.58
2023-04-15T02:20:52.689Z,9.56
2023-04-15T02:23:19.261Z,9.62
2023-04-15T02:25:53.439Z,9.67
2023-04-15T02:28:21.276Z,9.55
2023-04-15T02:30:48.392Z,9.53
2023-04-15T02:33:14.953Z,9.65
2023-04-15T02:35:42.905Z,9.43
2023-04-15T02:38:09.461Z,9.67
2023-04-15T02:40:35.893Z,9.44
2023-04-15T02:43:02.951Z,9.57
2023-04-15T02:45:29.502Z,9.44
2023-04-15T02:47:56.090Z,9.48
2023-04-15T02:50:22.796Z,9.34
2023-04-15T02:52:51.411Z,9.44
2023-04-15T02:55:17.996Z,9.12
2023-04-15T02:57:44.624Z,9.16
2023-04-15T03:00:12.420Z,9.10
2023-04-15T03:02:39.713Z,9.28
2023-04-15T03:05:07.705Z,9.32
2023-04-15T03:07:34.283Z,9.24
2023-04-15T03:10:02.226Z,9.23
2023-04-15T03:12:28.759Z,9.05
2023-04-15T03:14:55.330Z,9.11
2023-04-15T03:17:22.047Z,9.14
2023-04-15T03:19:48.624Z,9.23
2023-04-15T03:22:15.372Z,9.11
2023-04-15T03:24:41.916Z,9.24
2023-04-15T03:27:09.823Z,8.74
2023-04-15T03:29:36.414Z,8.65
2023-04-15T03:32:03.420Z,8.87
2023-04-15T03:34:29.961Z,9.04
2023-04-15T03:36:56.703Z,8.89
2023-04-15T03:39:23.348Z,8.74
2023-04-15T03:41:50.083Z,8.75
2023-04-15T03:44:17.977Z,8.86
2023-04-15T03:46:44.704Z,8.65
2023-04-15T03:49:11.256Z,8.49
2023-04-15T03:51:37.819Z,8.64
2023-04-15T03:54:04.487Z,8.67
2023-04-15T03:56:31.052Z,8.60
2023-04-15T03:58:57.596Z,8.29
2023-04-15T04:01:25.653Z,8.13
2023-04-15T04:03:52.321Z,8.19
2023-04-15T04:06:19.343Z,8.22
2023-04-15T04:08:45.925Z,8.16
2023-04-15T04:11:12.403Z,7.99
2023-04-15T04:13:39.391Z,8.03
2023-04-15T04:16:06.589Z,8.03
2023-04-15T04:18:34.785Z,8.01
2023-04-15T04:21:01.375Z,8.08
2023-04-15T04:23:28.041Z,8.04
2023-04-15T04:25:54.705Z,8.11
2023-04-15T04:28:21.405Z,8.20
2023-04-15T04:30:47.982Z,8.18
2023-04-15T04:33:14.609Z,8.46
2023-04-15T04:35:42.669Z,8.38
2023-04-15T04:38:09.336Z,8.23
2023-04-15T04:40:35.914Z,8.16
2023-04-15T04:43:03.045Z,8.29
2023-04-15T04:45:29.590Z,8.30
2023-04-15T04:47:56.303Z,8.37
2023-04-15T04:50:22.975Z,8.42
2023-04-15T04:52:50.923Z,8.43
2023-04-15T04:55:17.712Z,8.43
2023-04-15T04:57:44.345Z,8.32
2023-04-15T05:00:11.894Z,8.19
2023-04-15T05:02:38.832Z,8.09
2023-04-15T05:05:06.673Z,8.28
2023-04-15T05:07:33.290Z,8.54
2023-04-15T05:10:01.632Z,8.37
2023-04-15T05:12:28.267Z,8.58
2023-04-15T05:14:54.996Z,8.76
2023-04-15T05:17:21.835Z,8.49
2023-04-15T05:19:48.426Z,8.68
2023-04-15T05:22:15.011Z,8.72
2023-04-15T05:24:41.627Z,8.88
2023-04-15T05:27:09.674Z,9.03
2023-04-15T05:29:36.225Z,9.34
2023-04-15T05:32:02.858Z,9.28
2023-04-15T05:34:29.433Z,9.04
2023-04-15T05:36:56.108Z,9.49
2023-04-15T05:39:22.674Z,9.75
2023-04-15T05:41:49.146Z,10.71
2023-04-15T05:44:17.113Z,11.42
2023-04-15T05:46:43.752Z,11.99
2023-04-15T05:49:10.835Z,12.33
2023-04-15T05:51:37.367Z,12.33
2023-04-15T05:54:04.425Z,11.60
2023-04-15T05:56:30.966Z,11.74
2023-04-15T05:58:57.745Z,11.69
2023-04-15T06:01:25.747Z,11.78
2023-04-15T06:03:52.587Z,11.13
2023-04-15T06:06:19.343Z,11.25
2023-04-15T06:08:45.903Z,11.53
2023-04-15T06:11:12.737Z,11.14
2023-04-15T06:13:39.284Z,11.33
2023-04-15T06:16:06.487Z,11.56
2023-04-15T06:18:34.465Z,11.99
2023-04-15T06:21:01.068Z,12.26
2023-04-15T06:23:28.132Z,12.32
2023-04-15T06:25:54.697Z,12.61
2023-04-15T06:28:21.256Z,12.15
2023-04-15T06:30:47.979Z,12.22
2023-04-15T06:33:14.558Z,12.53
2023-04-15T06:35:42.492Z,12.77
2023-04-15T06:38:09.020Z,13.55
2023-04-15T06:40:35.611Z,13.73
2023-04-15T06:43:02.374Z,13.90
2023-04-15T06:45:28.977Z,14.42
2023-04-15T06:47:55.581Z,14.57
2023-04-15T06:50:22.283Z,14.07
2023-04-15T06:52:50.313Z,14.47
2023-04-15T06:55:16.895Z,14.55
2023-04-15T06:57:43.570Z,14.21
2023-04-15T07:00:11.520Z,14.10
2023-04-15T07:02:38.467Z,14.70
2023-04-15T07:05:06.573Z,14.80
2023-04-15T07:07:33.296Z,14.20
2023-04-15T07:10:01.239Z,13.22
2023-04-15T07:12:27.846Z,13.18
2023-04-15T07:14:54.569Z,13.35
2023-04-15T07:17:21.568Z,12.66
2023-04-15T07:19:48.163Z,12.61
2023-04-15T07:22:14.853Z,13.21
2023-04-15T07:24:41.876Z,13.45
2023-04-15T07:27:09.791Z,13.37
2023-04-15T07:29:36.476Z,13.66
2023-04-15T07:32:03.289Z,13.31
2023-04-15T07:34:30.803Z,13.52
2023-04-15T07:36:58.766Z,13.99
2023-04-15T07:39:25.309Z,13.46
2023-04-15T07:41:51.886Z,14.02
2023-04-15T07:44:20.052Z,13.76
2023-04-15T07:46:46.621Z,14.05
2023-04-15T07:49:13.179Z,14.47
2023-04-15T07:51:39.878Z,13.34
2023-04-15T07:54:06.486Z,13.41
2023-04-15T07:56:33.058Z,12.88
2023-04-15T07:58:59.891Z,13.13
2023-04-15T08:01:28.052Z,13.52
2023-04-15T08:03:55.147Z,13.92
2023-04-15T08:06:21.834Z,14.36
2023-04-15T08:08:48.578Z,13.51
2023-04-15T08:11:15.421Z,13.56
2023-04-15T08:13:42.255Z,13.31
2023-04-15T08:16:18.038Z,13.27
2023-04-15T08:18:46.127Z,13.91
2023-04-15T08:21:12.793Z,14.09
2023-04-15T08:23:39.862Z,12.97
2023-04-15T08:26:06.494Z,12.87
2023-04-15T08:28:33.149Z,13.40
2023-04-15T08:30:59.796Z,13.38
2023-04-15T08:33:26.348Z,13.20
2023-04-15T08:35:54.687Z,13.03
2023-04-15T08:38:21.240Z,12.91
2023-04-15T08:40:47.765Z,12.35
2023-04-15T08:43:20.941Z,12.53
2023-04-15T08:45:50.084Z,12.83
2023-04-15T08:48:17.489Z,13.60
2023-04-15T08:50:44.705Z,13.87
2023-04-15T08:53:13.049Z,13.43
2023-04-15T08:55:43.499Z,12.91
2023-04-15T08:58:10.855Z,13.96
2023-04-15T09:00:37.757Z,14.11
2023-04-15T09:03:04.946Z,14.10
2023-04-15T09:05:32.680Z,14.12
2023-04-15T09:07:59.324Z,13.45
2023-04-15T09:10:27.699Z,13.84
2023-04-15T09:12:54.504Z,13.72
2023-04-15T09:15:21.344Z,13.79
2023-04-15T09:17:48.125Z,14.01
2023-04-15T09:20:16.233Z,14.27
2023-04-15T09:22:45.008Z,14.55
2023-04-15T09:25:29.735Z,14.93
2023-04-15T09:27:58.874Z,14.77
2023-04-15T09:30:25.738Z,14.71
2023-04-15T09:32:54.206Z,14.49
2023-04-15T09:35:21.561Z,14.65
2023-04-15T09:37:48.577Z,14.09
2023-04-15T09:40:15.378Z,14.18
2023-04-15T09:42:56.210Z,13.84
2023-04-15T09:45:25.705Z,13.61
2023-04-15T09:47:53.759Z,13.81
2023-04-15T09:50:20.686Z,14.49
2023-04-15T09:52:47.766Z,14.82
2023-04-15T09:55:15.241Z,15.15
2023-04-15T09:57:42.062Z,15.50
2023-04-15T10:00:10.899Z,15.40
2023-04-15T10:02:37.704Z,15.13
2023-04-15T10:05:06.343Z,15.04
2023-04-15T10:07:33.313Z,14.57
2023-04-15T10:10:00.523Z,14.28
2023-04-15T10:12:28.587Z,15.01
2023-04-15T10:14:59.413Z,14.56
2023-04-15T10:17:29.870Z,15.52
2023-04-15T10:20:00.699Z,14.92
2023-04-15T10:22:28.198Z,14.94
2023-04-15T10:24:56.382Z,15.16
2023-04-15T10:27:23.346Z,14.40
2023-04-15T10:29:50.777Z,14.23
2023-04-15T10:32:19.228Z,14.48
2023-04-15T10:34:48.636Z,14.15
2023-04-15T10:37:21.350Z,13.80
2023-04-15T10:39:48.356Z,13.58
2023-04-15T10:42:16.448Z,13.76
2023-04-15T10:44:44.540Z,13.98
2023-04-15T10:47:12.460Z,14.06
2023-04-15T10:49:51.059Z,13.40
2023-04-15T10:52:22.344Z,13.56
2023-04-15T10:54:48.948Z,12.93
2023-04-15T10:57:21.298Z,12.84
2023-04-15T11:00:02.691Z,12.84
2023-04-15T11:02:39.284Z,13.00
2023-04-15T11:05:08.742Z,13.01
2023-04-15T11:07:40.609Z,12.54
2023-04-15T11:10:51.726Z,12.91
2023-04-15T11:13:21.024Z,13.07
2023-04-15T11:15:49.095Z,14.15
2023-04-15T11:18:16.751Z,13.65
2023-04-15T11:20:46.356Z,13.83
2023-04-15T11:23:15.310Z,13.40
2023-04-15T11:25:44.354Z,13.45
2023-04-15T11:28:12.060Z,13.18
2023-04-15T11:30:39.924Z,12.97
2023-04-15T11:33:08.331Z,12.78
2023-04-15T11:35:35.438Z,12.83
2023-04-15T11:38:05.680Z,13.11
2023-04-15T11:40:32.571Z,13.25
2023-04-15T11:43:07.202Z,13.22
2023-04-15T11:45:34.587Z,13.47
2023-04-15T11:48:08.404Z,12.73
2023-04-15T11:50:35.663Z,12.60
2023-04-15T11:53:07.654Z,12.15
2023-04-15T11:55:42.345Z,12.31
2023-04-15T11:58:10.548Z,12.21
2023-04-15T12:00:38.285Z,12.28
2023-04-15T12:03:19.422Z,12.18
2023-04-15T12:06:06.157Z,12.09
2023-04-15T12:08:55.896Z,12.23
2023-04-15T12:11:33.294Z,11.77
2023-04-15T12:14:05.434Z,11.64
2023-04-15T12:16:36.607Z,11.52
2023-04-15T12:19:14.908Z,11.75
2023-04-15T12:21:45.370Z,11.62
2023-04-15T12:24:14.021Z,11.68
2023-04-15T12:26:44.966Z,11.89
2023-04-15T12:29:13.383Z,11.42
2023-04-15T12:31:48.166Z,11.32
2023-04-15T12:34:14.964Z,11.20
2023-04-15T12:36:41.597Z,11.41
2023-04-15T12:39:08.304Z,11.51
2023-04-15T12:41:36.374Z,11.68
2023-04-15T12:44:03.242Z,11.19
2023-04-15T12:46:30.172Z,11.33
2023-04-15T12:48:57.070Z,11.15
2023-04-15T12:51:23.639Z,11.54
2023-04-15T12:53:50.975Z,11.41
2023-04-15T12:56:17.551Z,11.17
2023-04-15T12:58:45.587Z,11.12
2023-04-15T13:01:12.350Z,11.32
2023-04-15T13:03:39.195Z,11.38
2023-04-15T13:06:05.986Z,11.31
2023-04-15T13:08:33.171Z,11.39
2023-04-15T13:10:59.761Z,11.40
2023-04-15T13:13:26.633Z,11.29
2023-04-15T13:15:54.695Z,11.64
2023-04-15T13:18:21.532Z,11.61
2023-04-15T13:20:48.259Z,11.68
2023-04-15T13:23:14.918Z,11.81
2023-04-15T13:25:41.881Z,11.96
2023-04-15T13:28:08.498Z,12.29
2023-04-15T13:30:35.033Z,12.14
2023-04-15T13:33:03.053Z,12.31
2023-04-15T13:35:29.631Z,11.94
2023-04-15T13:37:56.198Z,12.40
2023-04-15T13:40:23.007Z,12.32
2023-04-15T13:42:50.962Z,12.45
2023-04-15T13:45:17.809Z,12.53
2023-04-15T13:47:44.491Z,12.72
2023-04-15T13:50:12.589Z,12.78
2023-04-15T13:52:39.771Z,12.69
2023-04-15T13:55:18.797Z,11.95
2023-04-15T13:57:46.967Z,11.65
2023-04-15T14:00:14.465Z,11.68
2023-04-15T14:02:41.280Z,11.85
2023-04-15T14:05:08.811Z,11.63
2023-04-15T14:07:36.958Z,11.96
2023-04-15T14:10:04.142Z,11.92
2023-04-15T14:12:30.761Z,11.94
2023-04-15T14:14:57.273Z,12.31
2023-04-15T14:17:23.959Z,12.18
2023-04-15T14:19:50.578Z,12.08
2023-04-15T14:22:17.122Z,12.31
2023-04-15T14:24:45.321Z,12.35
2023-04-15T14:27:11.907Z,12.00
2023-04-15T14:29:38.514Z,11.50
2023-04-15T14:32:12.201Z,11.75
2023-04-15T14:34:39.465Z,11.63
2023-04-15T14:37:06.825Z,11.74
2023-04-15T14:39:33.526Z,11.89
2023-04-15T14:42:01.574Z,12.08
2023-04-15T14:44:28.384Z,11.94
2023-04-15T14:46:55.614Z,12.17
2023-04-15T14:49:22.180Z,11.94
2023-04-15T14:51:48.736Z,11.87
2023-04-15T14:54:15.491Z,11.72
2023-04-15T14:56:42.154Z,11.81
2023-04-15T14:59:10.326Z,11.45
2023-04-15T15:01:36.958Z,11.59
2023-04-15T15:04:04.233Z,11.86
2023-04-15T15:06:31.090Z,11.82
2023-04-15T15:08:57.682Z,11.65
2023-04-15T15:11:24.253Z,11.69
2023-04-15T15:13:50.845Z,11.53
2023-04-15T15:16:19.055Z,11.39
2023-04-15T15:18:45.883Z,11.10
2023-04-15T15:21:13.123Z,10.94
2023-04-15T15:23:39.698Z,10.73
2023-04-15T15:26:06.308Z,10.67
2023-04-15T15:28:33.708Z,10.73
2023-04-15T15:31:00.566Z,10.95
2023-04-15T15:33:30.112Z,10.88
2023-04-15T15:35:58.032Z,11.03
2023-04-15T15:38:24.608Z,11.45
2023-04-15T15:40:51.280Z,11.35
2023-04-15T15:43:17.872Z,11.46
2023-04-15T15:45:44.543Z,11.53
2023-04-15T15:48:11.183Z,11.43
2023-04-15T15:50:39.247Z,11.84
2023-04-15T15:53:05.803Z,11.31
2023-04-15T15:55:32.598Z,11.17
2023-04-15T15:57:59.145Z,11.19
2023-04-15T16:00:25.821Z,11.31
2023-04-15T16:03:06.784Z,11.15
2023-04-15T16:05:34.537Z,11.16
2023-04-15T16:08:02.500Z,11.53
2023-04-15T16:10:29.100Z,11.23
2023-04-15T16:12:55.726Z,11.38
2023-04-15T16:15:22.774Z,11.37
2023-04-15T16:17:51.107Z,10.92
2023-04-15T16:20:17.984Z,10.91
2023-04-15T16:22:44.616Z,10.77
2023-04-15T16:25:12.881Z,10.70
2023-04-15T16:30:10.464Z,10.84
2023-04-15T16:32:37.112Z,10.78
2023-04-15T16:35:04.182Z,10.64
2023-04-15T16:37:32.983Z,10.99
2023-04-15T16:39:59.743Z,10.85
2023-04-15T16:42:27.900Z,11.03
2023-04-15T16:44:54.491Z,10.87
2023-04-15T16:47:21.040Z,11.05
2023-04-15T16:49:48.096Z,10.97
2023-04-15T16:52:14.650Z,11.04
2023-04-15T16:54:41.255Z,10.88
2023-04-15T16:57:07.925Z,10.54
2023-04-15T16:59:35.979Z,10.12
2023-04-15T17:02:02.874Z,10.15
2023-04-15T17:04:29.972Z,10.07
2023-04-15T17:06:56.759Z,10.07
2023-04-15T17:09:23.357Z,10.30
2023-04-15T17:11:50.059Z,10.15
2023-04-15T17:14:16.633Z,10.45
2023-04-15T17:16:44.586Z,9.99
2023-04-15T17:19:11.156Z,10.10
2023-04-15T17:21:37.764Z,9.93
2023-04-15T17:24:05.394Z,9.97
2023-04-15T17:26:32.036Z,9.67
2023-04-15T17:28:58.690Z,9.84
2023-04-15T17:31:25.457Z,9.67
2023-04-15T17:34:01.470Z,9.81
2023-04-15T17:36:35.899Z,9.60
2023-04-15T17:39:02.807Z,9.47
2023-04-15T17:41:29.691Z,9.57
2023-04-15T17:43:56.375Z,9.53
2023-04-15T17:46:23.187Z,9.81
2023-04-15T17:48:49.787Z,9.69
2023-04-15T17:51:17.989Z,9.82
2023-04-15T17:53:44.792Z,9.70
2023-04-15T17:56:11.500Z,9.57
2023-04-15T17:58:38.184Z,9.27
2023-04-15T18:01:04.734Z,9.43
2023-04-15T18:03:31.475Z,9.05
2023-04-15T18:05:58.087Z,9.27
2023-04-15T18:08:26.022Z,9.20
2023-04-15T18:10:52.746Z,9.02
2023-04-15T18:13:19.368Z,9.33
2023-04-15T18:15:47.405Z,9.32
2023-04-15T18:18:14.205Z,9.34
2023-04-15T18:20:41.047Z,9.33
2023-04-15T18:23:07.830Z,9.11
2023-04-15T18:25:36.014Z,9.23
2023-04-15T18:28:02.587Z,9.35
2023-04-15T18:30:29.266Z,9.35
2023-04-15T18:32:55.956Z,9.22
2023-04-15T18:35:22.591Z,9.20
2023-04-15T18:37:49.654Z,9.14
2023-04-15T18:40:16.286Z,9.14
2023-04-15T18:42:44.245Z,8.88
2023-04-15T18:45:11.058Z,9.15
2023-04-15T18:47:37.728Z,8.94
2023-04-15T18:50:04.888Z,8.78
2023-04-15T18:52:31.536Z,9.23
2023-04-15T18:54:58.194Z,8.97
2023-04-15T18:57:32.317Z,8.92
2023-04-15T19:00:03.143Z,8.96
2023-04-15T19:02:29.833Z,8.91
2023-04-15T19:04:56.560Z,8.83
2023-04-15T19:07:23.170Z,8.95
2023-04-15T19:09:49.856Z,9.15
2023-04-15T19:12:16.449Z,9.10
2023-04-15T19:14:43.421Z,9.17
2023-04-15T19:17:11.546Z,9.18
2023-04-15T19:19:38.114Z,8.97
2023-04-15T19:22:04.859Z,9.24
2023-04-15T19:24:32.939Z,9.06
2023-04-15T19:27:00.135Z,9.28
2023-04-15T19:29:26.850Z,9.41
2023-04-15T19:31:53.747Z,9.23
2023-04-15T19:34:21.678Z,8.86
2023-04-15T19:36:48.585Z,8.87
2023-04-15T19:39:15.447Z,9.16
2023-04-15T19:41:42.106Z,9.09
2023-04-15T19:44:08.687Z,9.15
2023-04-15T19:46:35.541Z,8.97
2023-04-15T19:49:02.304Z,9.02
2023-04-15T19:51:30.324Z,9.20
2023-04-15T19:53:56.913Z,9.15
2023-04-15T19:56:23.968Z,8.95
2023-04-15T19:58:50.686Z,8.64
2023-04-15T20:01:17.321Z,8.87
2023-04-15T20:03:44.258Z,8.87
2023-04-15T20:06:11.012Z,8.86
2023-04-15T20:08:39.194Z,9.07
2023-04-15T20:11:05.977Z,9.01
2023-04-15T20:13:32.633Z,9.12
2023-04-15T20:15:59.351Z,9.06
2023-04-15T20:18:25.946Z,9.17
2023-04-15T20:20:52.755Z,9.14
2023-04-15T20:23:19.440Z,8.88
2023-04-15T20:25:47.363Z,8.80
2023-04-15T20:28:14.033Z,8.81
2023-04-15T20:30:40.616Z,8.75
2023-04-15T20:33:07.263Z,8.62
2023-04-15T20:35:34.062Z,8.47
2023-04-15T20:38:01.004Z,8.84
2023-04-15T20:40:27.561Z,9.16
2023-04-15T20:42:55.603Z,9.03
2023-04-15T20:45:22.043Z,9.37
2023-04-15T20:47:48.674Z,9.03
2023-04-15T20:50:15.468Z,8.97
2023-04-15T20:52:42.372Z,9.04
2023-04-15T20:55:09.292Z,8.93
2023-04-15T20:57:35.928Z,9.10
2023-04-15T21:00:05.067Z,9.23
2023-04-15T21:02:31.720Z,9.01
2023-04-15T21:04:58.993Z,9.00
2023-04-15T21:07:25.602Z,9.11
2023-04-15T21:09:52.245Z,8.82
2023-04-15T21:12:18.790Z,8.82
2023-04-15T21:14:45.406Z,8.87
2023-04-15T21:17:13.330Z,8.78
2023-04-15T21:19:40.027Z,8.63
2023-04-15T21:22:06.552Z,8.95
2023-04-15T21:24:33.156Z,9.22
2023-04-15T21:26:59.800Z,9.03
2023-04-15T21:29:26.429Z,8.88
2023-04-15T21:31:53.284Z,8.87
2023-04-15T21:34:21.584Z,8.88
2023-04-15T21:36:48.291Z,8.93
2023-04-15T21:39:14.874Z,9.32
2023-04-15T21:41:41.492Z,9.03
2023-04-15T21:44:08.232Z,9.32
2023-04-15T21:46:35.580Z,9.10
2023-04-15T21:49:02.915Z,8.75
2023-04-15T21:51:30.894Z,8.95
2023-04-15T21:53:57.459Z,8.91
2023-04-15T21:56:24.873Z,8.91
2023-04-15T21:58:56.513Z,8.67
2023-04-15T22:01:23.114Z,8.87
2023-04-15T22:03:49.938Z,9.08
2023-04-15T22:06:16.897Z,8.60
2023-04-15T22:08:55.128Z,8.92
2023-04-15T22:11:23.992Z,9.08
2023-04-15T22:13:50.589Z,9.00
2023-04-15T22:16:17.220Z,8.94
2023-04-15T22:18:43.795Z,9.14
2023-04-15T22:21:10.363Z,9.21
2023-04-15T22:23:36.931Z,9.13
2023-04-15T22:26:07.022Z,9.49
2023-04-15T22:28:33.640Z,9.45
2023-04-15T22:31:00.249Z,9.28
2023-04-15T22:33:26.800Z,9.37
2023-04-15T22:35:53.322Z,9.58
2023-04-15T22:38:20.422Z,9.58
2023-04-15T22:40:47.009Z,9.36
2023-04-15T22:43:14.949Z,9.57
2023-04-15T22:45:41.678Z,9.65
2023-04-15T22:48:08.259Z,9.81
2023-04-15T22:50:37.249Z,9.89
2023-04-15T22:53:03.936Z,9.56
2023-04-15T22:55:30.737Z,9.43
2023-04-15T22:57:57.303Z,9.47
2023-04-15T23:00:25.271Z,9.45
2023-04-15T23:02:51.967Z,9.52
2023-04-15T23:05:18.782Z,9.49
2023-04-15T23:07:45.489Z,9.01
2023-04-15T23:10:12.252Z,8.97
2023-04-15T23:12:38.808Z,8.96
2023-04-15T23:15:06.280Z,9.01
2023-04-15T23:17:34.326Z,8.85
2023-04-15T23:20:00.923Z,9.04
2023-04-15T23:22:27.830Z,9.06
2023-04-15T23:24:54.372Z,9.04
2023-04-15T23:27:20.919Z,8.82
2023-04-15T23:29:47.975Z,9.27
2023-04-15T23:32:14.800Z,9.16
2023-04-15T23:34:42.979Z,9.02
2023-04-15T23:37:09.654Z,9.29
2023-04-15T23:39:36.171Z,9.24
2023-04-15T23:42:03.219Z,9.40
2023-04-15T23:44:29.858Z,9.46
2023-04-15T23:46:56.644Z,9.47
2023-04-15T23:49:23.428Z,9.43
2023-04-15T23:51:51.724Z,9.37
2023-04-15T23:54:18.280Z,9.57
2023-04-15T23:56:44.878Z,9.64
2023-04-15T23:59:11.628Z,9.62
